Time;durP1;ratioP1;P1;durP2;ratioP2;P2;SDS_P1;SDS_P2;PMS_P1;PMS_P2;Temp;Humidity;BMP_temperature;BMP_pressure;BME280_temperature;BME280_humidity;BME280_pressure;Samples;Min_cycle;Max_cycle;Signal;HPM_P1;HPM_P2
2022/07/07 00:00:45;;;;;;;5.33;3.95;;;;;;;14.67;94.31;99369.09;3864172;90;21555;-83
2022/07/07 00:06:46;;;;;;;5.80;3.60;;;;;;;14.78;94.55;99380.91;3938814;89;21119;-83
2022/07/07 00:12:49;;;;;;;7.45;4.78;;;;;;;14.79;94.34;99380.30;3937619;89;21090;-83
2022/07/07 00:18:50;;;;;;;7.55;4.50;;;;;;;14.67;93.67;99371.84;3935126;89;21656;-83
2022/07/07 00:24:53;;;;;;;8.45;3.95;;;;;;;14.52;93.89;99366.10;3937724;89;21520;-83
2022/07/07 00:30:54;;;;;;;6.70;4.00;;;;;;;14.25;93.88;99361.34;3904738;90;21081;-83
2022/07/07 00:36:55;;;;;;;6.20;4.30;;;;;;;14.11;94.63;99362.84;3919526;90;21666;-85
2022/07/07 00:42:59;;;;;;;6.55;4.72;;;;;;;13.97;94.80;99356.50;3994314;88;21062;-83
2022/07/07 00:49:01;;;;;;;9.48;5.00;;;;;;;14.01;94.68;99354.56;3908174;90;21550;-82
2022/07/07 00:55:08;;;;;;;8.85;4.78;;;;;;;13.94;95.27;99357.28;3869439;90;21071;-82
2022/07/07 01:01:14;;;;;;;9.75;4.72;;;;;;;13.93;95.47;99354.34;3874620;90;21083;-83
2022/07/07 01:07:16;;;;;;;7.55;4.30;;;;;;;13.89;94.98;99354.32;3880699;90;21083;-82
2022/07/07 01:13:18;;;;;;;7.47;4.28;;;;;;;13.79;95.65;99352.34;3915501;89;21077;-82
2022/07/07 01:19:21;;;;;;;7.08;4.22;;;;;;;13.77;95.07;99348.38;3935086;89;21063;-82
2022/07/07 01:25:23;;;;;;;7.70;5.28;;;;;;;13.64;95.83;99354.05;3934150;89;21719;-82
2022/07/07 01:31:25;;;;;;;9.18;4.28;;;;;;;13.55;95.38;99342.00;3934334;89;21043;-82
2022/07/07 01:37:26;;;;;;;8.65;4.35;;;;;;;13.60;96.57;99350.47;3946917;89;21116;-82
2022/07/07 01:43:29;;;;;;;9.43;4.55;;;;;;;13.68;96.28;99351.50;3975893;88;21597;-82
2022/07/07 01:49:33;;;;;;;4.58;4.15;;;;;;;13.55;95.76;99357.70;3971041;88;21116;-82
2022/07/07 01:55:35;;;;;;;6.72;4.25;;;;;;;13.32;95.97;99354.45;3868344;90;21520;-82
2022/07/07 02:01:39;;;;;;;6.37;4.97;;;;;;;13.39;96.71;99357.25;3935284;89;21076;-82
2022/07/07 02:07:41;;;;;;;4.87;4.35;;;;;;;13.39;96.65;99353.90;3993691;88;21069;-82
2022/07/07 02:13:52;;;;;;;7.20;4.35;;;;;;;13.16;96.23;99341.58;3932990;89;21060;-82
2022/07/07 02:19:53;;;;;;;6.40;4.37;;;;;;;13.21;96.94;99343.40;3936592;89;21416;-81
2022/07/07 02:25:54;;;;;;;5.58;4.12;;;;;;;13.10;96.96;99348.04;3869077;90;21075;-81
2022/07/07 02:31:55;;;;;;;7.90;4.50;;;;;;;13.25;97.95;99350.30;3947941;89;21585;-81
2022/07/07 02:45:26;;;;;;;5.62;4.00;;;;;;;13.21;96.90;99347.52;3974111;88;21598;-82
2022/07/07 02:51:27;;;;;;;7.05;4.83;;;;;;;13.05;97.14;99332.48;3924416;89;21072;-82
2022/07/07 02:57:29;;;;;;;7.35;4.83;;;;;;;13.09;97.43;99329.95;3962683;88;21094;-81
2022/07/07 03:03:30;;;;;;;5.17;4.40;;;;;;;13.12;97.44;99316.84;3930041;89;21512;-81
2022/07/07 03:09:31;;;;;;;7.87;4.47;;;;;;;13.12;97.46;99317.42;3977755;89;21047;-82
2022/07/07 03:15:32;;;;;;;5.35;4.20;;;;;;;13.14;97.39;99313.71;3978645;88;21022;-82
2022/07/07 03:21:34;;;;;;;5.05;4.10;;;;;;;13.16;97.96;99316.27;4010494;88;21133;-82
2022/07/07 03:27:35;;;;;;;8.50;4.20;;;;;;;13.26;98.22;99318.88;3986725;88;21589;-81
2022/07/07 03:33:37;;;;;;;7.72;3.87;;;;;;;13.24;97.85;99329.45;4002432;88;21069;-81
2022/07/07 03:39:38;;;;;;;6.50;4.45;;;;;;;13.18;98.50;99348.87;3981657;88;21506;-82
2022/07/07 03:45:40;;;;;;;10.18;5.33;;;;;;;13.33;99.07;99354.06;3958641;88;21680;-82
2022/07/07 03:51:42;;;;;;;7.97;4.78;;;;;;;13.30;98.33;99338.34;3968168;88;21096;-83
2022/07/07 03:57:43;;;;;;;10.13;4.95;;;;;;;13.30;97.88;99325.17;3983022;88;21002;-83
2022/07/07 04:03:44;;;;;;;7.45;5.20;;;;;;;13.34;98.82;99324.62;3984931;88;21083;-83
2022/07/07 04:09:45;;;;;;;6.55;4.22;;;;;;;13.41;98.34;99320.52;3982775;88;21140;-82
2022/07/07 04:15:47;;;;;;;5.15;4.15;;;;;;;13.50;98.95;99326.47;3976934;88;20981;-82
2022/07/07 04:21:49;;;;;;;6.70;4.40;;;;;;;13.66;99.25;99318.66;3975672;88;21099;-82
2022/07/07 04:28:08;;;;;;;4.65;4.17;;;;;;;13.78;98.85;99315.58;3936224;88;21121;-82
2022/07/07 04:34:12;;;;;;;6.03;4.58;;;;;;;13.90;98.81;99318.77;3974800;88;21072;-84
2022/07/07 04:40:13;;;;;;;5.92;3.87;;;;;;;13.98;98.98;99305.80;3993482;88;21188;-83
2022/07/07 04:46:17;;;;;;;5.45;3.80;;;;;;;14.10;98.94;99313.69;3981870;88;21101;-83
2022/07/07 04:52:19;;;;;;;8.68;3.90;;;;;;;14.23;98.59;99307.22;3963981;88;21053;-82
2022/07/07 04:58:20;;;;;;;4.35;3.90;;;;;;;14.28;98.42;99315.13;3960753;88;21507;-82
2022/07/07 05:04:22;;;;;;;4.58;4.03;;;;;;;14.36;98.22;99311.97;3984713;88;21033;-82
2022/07/07 05:10:25;;;;;;;5.33;3.75;;;;;;;14.46;98.41;99315.34;3982286;88;21136;-83
2022/07/07 05:23:33;;;;;;;5.40;3.83;;;;;;;14.67;98.14;99311.22;3972469;88;21777;-83
2022/07/07 05:29:34;;;;;;;5.10;3.00;;;;;;;14.80;97.99;99308.24;3981323;88;21061;-83
2022/07/07 05:35:37;;;;;;;16.23;4.50;;;;;;;15.02;97.94;99310.38;3979416;88;21596;-81
2022/07/07 05:41:41;;;;;;;4.80;4.25;;;;;;;15.23;97.54;99301.48;3978804;88;21653;-82
2022/07/07 05:47:44;;;;;;;14.00;4.80;;;;;;;15.41;97.13;99302.84;3993685;88;21723;-83
2022/07/07 05:53:46;;;;;;;5.87;4.10;;;;;;;15.61;97.25;99292.91;3985799;88;21081;-83
2022/07/07 05:59:47;;;;;;;9.45;4.28;;;;;;;15.82;96.93;99290.64;4007932;88;21654;-82
2022/07/07 06:05:49;;;;;;;7.35;5.35;;;;;;;15.98;96.65;99298.63;3992511;87;21080;-83
2022/07/07 06:11:51;;;;;;;8.85;5.47;;;;;;;16.13;96.16;99291.05;3960178;88;21557;-82
2022/07/07 06:17:53;;;;;;;13.28;6.03;;;;;;;16.31;95.85;99296.64;3981238;88;21512;-83
2022/07/07 06:23:54;;;;;;;11.33;4.55;;;;;;;16.51;95.42;99284.47;3966680;89;21039;-81
2022/07/07 06:29:57;;;;;;;9.03;4.97;;;;;;;16.73;95.19;99274.80;3982726;88;21053;-83
2022/07/07 06:35:58;;;;;;;11.35;7.12;;;;;;;16.92;94.50;99283.91;3982141;88;21069;-83
2022/07/07 06:42:00;;;;;;;13.20;7.58;;;;;;;17.10;93.89;99288.69;3953992;89;21052;-83
2022/07/07 06:48:06;;;;;;;12.63;6.85;;;;;;;17.34;93.51;99282.08;3935288;89;21127;-83
2022/07/07 06:54:09;;;;;;;8.03;4.55;;;;;;;17.59;93.12;99275.67;3929601;90;21085;-83
2022/07/07 07:00:12;;;;;;;9.95;6.47;;;;;;;17.90;92.55;99273.70;3921411;90;21520;-84
2022/07/07 07:06:14;;;;;;;6.85;5.22;;;;;;;18.59;92.51;99270.46;3933228;89;21063;-84
2022/07/07 07:12:15;;;;;;;4.33;3.92;;;;;;;19.17;91.28;99268.25;3954834;89;21117;-84
2022/07/07 07:18:16;;;;;;;8.65;3.90;;;;;;;19.85;90.76;99256.74;3945680;89;21088;-85
2022/07/07 07:24:17;;;;;;;8.18;4.30;;;;;;;20.39;89.41;99258.51;3927411;89;21746;-84
2022/07/07 07:30:22;;;;;;;6.80;3.22;;;;;;;21.01;88.08;99261.70;3930321;89;21057;-84
2022/07/07 07:36:25;;;;;;;6.70;3.30;;;;;;;21.51;86.88;99254.93;3907914;90;21096;-84
2022/07/07 07:42:27;;;;;;;10.53;2.95;;;;;;;21.93;85.22;99252.12;3923875;89;21041;-84
2022/07/07 07:48:29;;;;;;;8.33;3.62;;;;;;;22.12;83.02;99246.34;3894206;89;21641;-84
2022/07/07 07:54:33;;;;;;;6.55;3.17;;;;;;;22.43;82.23;99253.51;3874000;91;21104;-84
2022/07/07 08:00:35;;;;;;;3.62;2.52;;;;;;;22.62;80.26;99249.11;3888637;90;21226;-80
2022/07/07 08:06:36;;;;;;;6.10;2.37;;;;;;;22.70;75.09;99239.88;3850687;91;21117;-82
2022/07/07 08:12:39;;;;;;;5.00;2.72;;;;;;;22.37;75.62;99246.94;3865481;91;21065;-85
2022/07/07 08:18:40;;;;;;;4.72;1.90;;;;;;;22.02;74.56;99243.26;3891611;91;21059;-84
2022/07/07 08:24:41;;;;;;;3.77;2.42;;;;;;;22.29;74.55;99243.60;3892110;91;21098;-83
2022/07/07 08:30:43;;;;;;;3.50;2.37;;;;;;;22.13;71.85;99239.53;3876364;91;21061;-83
2022/07/07 08:36:44;;;;;;;3.75;2.30;;;;;;;22.06;68.73;99236.98;3881154;91;21142;-84
2022/07/07 08:42:47;;;;;;;5.40;2.08;;;;;;;22.37;71.31;99237.96;3866789;91;21129;-85
2022/07/07 08:48:50;;;;;;;5.30;1.80;;;;;;;22.67;69.92;99231.81;3921447;89;21094;-84
2022/07/07 08:54:55;;;;;;;3.55;2.00;;;;;;;22.81;68.27;99226.34;3856569;92;21474;-84
2022/07/07 09:00:56;;;;;;;2.67;1.90;;;;;;;22.72;67.53;99225.63;3935228;89;21408;-84
2022/07/07 09:07:01;;;;;;;5.25;2.12;;;;;;;22.54;67.31;99225.47;3939243;89;21585;-84
2022/07/07 09:13:26;;;;;;;3.30;1.67;;;;;;;22.29;67.17;99221.29;3934132;89;21079;-84
2022/07/07 09:19:34;;;;;;;4.60;2.50;;;;;;;;;;3913040;90;21168;-85
2022/07/07 09:25:39;;;;;;;4.70;1.82;;;;;;;21.90;65.99;99216.77;3928674;89;21146;-85
2022/07/07 09:32:09;;;;;;;1.85;1.50;;;;;;;21.99;65.81;99223.88;4028301;88;21574;-85
2022/07/07 09:38:17;;;;;;;3.08;1.80;;;;;;;21.78;65.17;99216.16;3993321;88;21038;-83
2022/07/07 09:44:20;;;;;;;2.33;1.57;;;;;;;21.62;65.12;99223.37;3995173;87;21079;-85
2022/07/07 09:50:21;;;;;;;6.60;2.15;;;;;;;21.94;64.92;99221.02;3988487;88;21534;-85
2022/07/07 09:56:25;;;;;;;4.15;1.77;;;;;;;22.01;64.26;99211.05;3989750;88;21026;-85
2022/07/07 10:02:43;;;;;;;;;;;;;;;;;;;;;
2022/07/07 10:08:35;;;;;;;2.92;1.77;;;;;;;21.54;63.91;99215.05;3975461;88;21616;-85
2022/07/07 10:14:44;;;;;;;4.67;2.08;;;;;;;22.27;64.49;99201.43;3983478;88;21088;-84
2022/07/07 10:20:46;;;;;;;5.53;2.10;;;;;;;22.78;60.33;99190.36;3976725;88;21043;-83
2022/07/07 10:26:56;;;;;;;1.92;1.50;;;;;;;23.26;58.75;99193.23;3985125;88;21069;-83
2022/07/07 10:32:58;;;;;;;3.20;1.90;;;;;;;23.34;56.81;99198.73;3968478;88;21140;-84
2022/07/07 10:39:01;;;;;;;2.15;1.70;;;;;;;23.97;58.26;99182.94;3977886;88;21113;-85
2022/07/07 10:45:05;;;;;;;2.45;1.67;;;;;;;24.43;58.16;99180.45;3970209;84;21573;-85
2022/07/07 10:51:28;;;;;;;2.60;1.67;;;;;;;24.41;58.00;99178.12;3983088;88;21404;-84
2022/07/07 10:57:43;;;;;;;1.98;1.52;;;;;;;24.64;58.33;99176.13;3925179;89;21140;-82
2022/07/07 11:03:44;;;;;;;5.87;1.85;;;;;;;24.31;55.95;99168.13;3972523;88;21140;-84
2022/07/07 11:10:12;;;;;;;2.55;1.77;;;;;;;24.45;54.84;99133.96;3866547;90;21104;-83
2022/07/07 11:16:22;;;;;;;4.05;1.57;;;;;;;25.27;54.37;99156.36;3928663;89;21143;-83
2022/07/07 11:22:29;;;;;;;5.30;1.50;;;;;;;25.44;53.92;99157.59;3935462;89;21064;-82
2022/07/07 11:29:04;;;;;;;3.87;1.50;;;;;;;25.97;49.93;99144.62;3923046;89;21509;-84
2022/07/07 11:35:12;;;;;;;3.50;1.27;;;;;;;25.49;52.45;99147.94;3932837;89;21034;-84
2022/07/07 11:41:17;;;;;;;4.10;1.55;;;;;;;24.87;52.83;99144.59;3973157;88;21128;-83
2022/07/07 11:47:19;;;;;;;2.30;1.45;;;;;;;24.43;52.65;99141.28;3927020;89;21063;-83
2022/07/07 11:53:22;;;;;;;3.35;1.42;;;;;;;23.86;52.84;99142.02;3910641;89;21111;-83
2022/07/07 11:59:23;;;;;;;3.50;1.60;;;;;;;23.34;52.70;99138.67;3990502;88;21030;-83
2022/07/07 12:05:29;;;;;;;3.80;1.75;;;;;;;22.92;53.17;99133.25;3982495;88;21068;-83
2022/07/07 12:11:31;;;;;;;4.87;3.27;;;;;;;22.67;53.07;99133.36;3928312;89;21077;-83
2022/07/07 12:17:40;;;;;;;5.28;3.60;;;;;;;22.57;53.64;99126.92;3943582;89;21707;-83
2022/07/07 12:24:04;;;;;;;5.12;2.72;;;;;;;22.50;53.97;99122.18;3942169;89;21579;-83
2022/07/07 12:30:06;;;;;;;4.80;1.90;;;;;;;22.43;53.54;99116.23;3987144;88;21933;-83
2022/07/07 12:43:10;;;;;;;2.95;1.52;;;;;;;22.31;53.80;99112.08;3980603;88;21730;-83
2022/07/07 12:49:13;;;;;;;5.05;2.08;;;;;;;22.55;54.79;99107.69;3889012;89;21097;-84
2022/07/07 12:55:16;;;;;;;3.80;1.75;;;;;;;22.77;55.00;99100.88;3866234;90;21085;-84
2022/07/07 13:01:22;;;;;;;1.87;1.37;;;;;;;22.96;54.50;99099.78;3921557;89;21543;-83
2022/07/07 13:07:26;;;;;;;3.55;1.72;;;;;;;23.19;55.20;99087.36;3976672;89;21012;-83
2022/07/07 13:13:29;;;;;;;5.37;1.82;;;;;;;23.22;55.09;99087.84;3929556;89;21151;-83
2022/07/07 13:19:30;;;;;;;3.77;1.60;;;;;;;23.11;55.05;99083.28;3921835;89;21603;-84
2022/07/07 13:25:32;;;;;;;4.97;1.70;;;;;;;23.15;55.48;99083.91;3924788;89;21047;-83
2022/07/07 13:31:37;;;;;;;1.25;1.10;;;;;;;23.17;55.03;99080.05;3976110;87;21611;-84
2022/07/07 13:37:42;;;;;;;2.12;1.27;;;;;;;23.27;53.85;99070.53;3979491;88;21411;-84
2022/07/07 13:43:46;;;;;;;3.47;1.57;;;;;;;23.00;52.01;99049.41;3911191;89;21068;-85
2022/07/07 13:49:48;;;;;;;3.58;1.42;;;;;;;23.00;52.01;99049.41;3823339;88;269936;-83
2022/07/07 13:55:49;;;;;;;2.55;1.30;;;;;;;22.94;52.64;99055.42;3812923;92;21118;-83
2022/07/07 14:01:50;;;;;;;2.52;1.30;;;;;;;22.69;52.69;99059.11;3832112;90;21164;-83
2022/07/07 14:07:52;;;;;;;7.72;2.52;;;;;;;22.53;52.82;99059.33;3755314;93;21072;-84
2022/07/07 14:13:53;;;;;;;5.58;1.40;;;;;;;22.40;52.68;99059.95;3834723;92;21112;-84
2022/07/07 14:19:55;;;;;;;2.35;1.55;;;;;;;22.26;52.55;99056.27;3817019;92;21050;-84
2022/07/07 14:25:56;;;;;;;3.65;1.82;;;;;;;22.14;53.03;99059.10;3828754;91;21662;-83
2022/07/07 14:31:59;;;;;;;4.70;2.17;;;;;;;22.11;52.84;99058.61;3822052;92;21100;-84
2022/07/07 14:38:01;;;;;;;5.65;2.90;;;;;;;22.14;52.42;99064.67;3772028;93;21123;-83
2022/07/07 14:44:04;;;;;;;4.80;2.80;;;;;;;22.18;52.97;99066.11;3786246;93;21132;-83
2022/07/07 14:50:06;;;;;;;4.30;2.30;;;;;;;22.19;53.58;99064.11;3812759;91;21847;-83
2022/07/07 14:56:08;;;;;;;3.35;2.10;;;;;;;22.26;53.61;99068.82;3835855;91;21111;-83
2022/07/07 15:02:10;;;;;;;2.47;1.25;;;;;;;22.31;53.16;99065.47;3841125;91;21055;-84
2022/07/07 15:08:11;;;;;;;2.58;1.70;;;;;;;22.30;53.20;99065.92;3823510;91;21172;-84
2022/07/07 15:14:12;;;;;;;3.10;1.50;;;;;;;22.43;53.88;99066.02;3843655;91;21071;-84
2022/07/07 15:20:14;;;;;;;2.20;1.52;;;;;;;22.56;53.89;99063.20;3843455;91;21069;-84
2022/07/07 15:26:15;;;;;;;2.08;1.50;;;;;;;22.51;53.60;99070.15;3897521;90;21056;-84
2022/07/07 15:32:16;;;;;;;3.58;1.42;;;;;;;22.44;53.44;99068.20;3850056;91;21104;-85
2022/07/07 15:38:19;;;;;;;2.25;1.80;;;;;;;22.28;53.60;99065.58;3828935;91;21070;-84
2022/07/07 15:44:20;;;;;;;6.15;2.42;;;;;;;22.15;54.46;99067.62;3879788;90;21024;-84
2022/07/07 15:50:23;;;;;;;4.92;2.27;;;;;;;22.00;55.25;99065.95;3857732;91;21046;-83
2022/07/07 15:56:25;;;;;;;5.08;2.35;;;;;;;21.81;56.04;99066.98;3885553;91;21140;-84
2022/07/07 16:02:27;;;;;;;6.92;2.12;;;;;;;21.70;56.65;99073.48;3859557;91;21040;-84
2022/07/07 16:08:28;;;;;;;4.78;2.10;;;;;;;21.62;56.86;99085.48;3833744;91;21564;-84
2022/07/07 16:14:33;;;;;;;5.15;2.30;;;;;;;21.52;57.32;99093.55;3839065;91;21617;-84
2022/07/07 16:20:34;;;;;;;2.17;1.90;;;;;;;21.38;57.74;99100.16;3831723;91;21100;-84
2022/07/07 16:26:40;;;;;;;3.92;2.20;;;;;;;21.25;58.29;99095.97;3840146;91;21115;-84
2022/07/07 16:32:42;;;;;;;7.60;2.30;;;;;;;21.15;58.75;99112.39;3831305;91;21547;-83
2022/07/07 16:38:46;;;;;;;5.03;2.10;;;;;;;20.89;58.69;99124.64;3831137;91;21237;-83
2022/07/07 16:44:47;;;;;;;2.65;1.72;;;;;;;20.61;59.19;99128.84;3832167;91;21124;-84
2022/07/07 16:50:50;;;;;;;3.05;1.67;;;;;;;20.35;59.96;99139.64;3884946;90;21091;-84
2022/07/07 16:56:53;;;;;;;1.65;1.45;;;;;;;19.99;60.60;99137.73;3907904;90;21064;-83
2022/07/07 17:02:54;;;;;;;4.37;2.27;;;;;;;19.77;61.50;99142.84;3844887;91;21104;-83
2022/07/07 17:08:55;;;;;;;2.42;1.90;;;;;;;19.53;62.31;99147.75;3812467;91;21500;-83
2022/07/07 17:14:56;;;;;;;3.55;2.90;;;;;;;19.41;63.02;99149.02;3838131;91;21051;-83
2022/07/07 17:20:59;;;;;;;3.67;2.20;;;;;;;19.31;63.50;99141.09;3911072;90;21033;-83
2022/07/07 17:27:00;;;;;;;2.95;2.12;;;;;;;19.10;64.38;99140.15;3892874;90;21028;-84
2022/07/07 17:33:01;;;;;;;3.17;2.10;;;;;;;18.90;64.34;99138.58;3900447;90;21084;-82
2022/07/07 17:39:03;;;;;;;4.33;2.10;;;;;;;18.78;64.54;99135.83;3873435;81;21119;-84
2022/07/07 17:45:06;;;;;;;3.62;2.02;;;;;;;18.57;65.00;99127.94;4002855;87;21031;-83
2022/07/07 17:51:08;;;;;;;3.50;2.15;;;;;;;18.42;65.42;99126.02;4048813;87;20982;-83
2022/07/07 17:57:09;;;;;;;3.08;2.27;;;;;;;18.30;65.79;99120.28;4012478;87;21726;-83
2022/07/07 18:03:10;;;;;;;3.67;2.20;;;;;;;18.22;66.63;99125.77;3960701;86;9999675;-84
2022/07/07 18:09:12;;;;;;;2.85;2.50;;;;;;;18.12;66.74;99126.13;4001000;87;21154;-83
2022/07/07 18:15:15;;;;;;;5.83;2.98;;;;;;;18.04;67.01;99128.83;4008093;87;21097;-83
2022/07/07 18:21:17;;;;;;;4.35;2.70;;;;;;;17.98;67.85;99127.75;4073635;86;21198;-84
2022/07/07 18:27:18;;;;;;;3.95;2.55;;;;;;;17.98;68.57;99132.53;4085691;86;21527;-83
2022/07/07 18:33:20;;;;;;;2.80;2.50;;;;;;;17.94;68.91;99140.09;4031919;87;21077;-83
2022/07/07 18:39:26;;;;;;;5.50;2.62;;;;;;;17.88;69.58;99132.09;4017053;87;21034;-83
2022/07/07 18:45:27;;;;;;;4.20;2.67;;;;;;;17.85;70.19;99136.48;4032461;87;21126;-83
2022/07/07 18:51:47;;;;;;;3.20;2.40;;;;;;;17.74;69.85;99140.03;4026180;86;21660;-83
2022/07/07 18:57:48;;;;;;;4.95;3.47;;;;;;;17.71;70.84;99152.53;4022686;87;21411;-83
2022/07/07 19:03:50;;;;;;;5.90;3.45;;;;;;;17.66;71.16;99166.84;4033534;87;21017;-83
2022/07/07 19:09:55;;;;;;;4.62;2.98;;;;;;;17.55;71.49;99173.91;4042509;87;21383;-84
2022/07/07 19:16:00;;;;;;;5.28;3.45;;;;;;;17.49;71.81;99176.17;4021220;86;21469;-83
2022/07/07 19:22:01;;;;;;;4.70;3.62;;;;;;;17.43;72.35;99177.81;4036256;86;21538;-83
2022/07/07 19:28:06;;;;;;;6.12;2.90;;;;;;;17.36;73.13;99191.14;4003964;88;21079;-84
2022/07/07 19:34:10;;;;;;;7.30;3.47;;;;;;;17.27;73.76;99199.76;3985384;88;21067;-82
2022/07/07 19:40:12;;;;;;;6.25;3.50;;;;;;;17.30;74.38;99209.41;3993418;88;21070;-83
2022/07/07 19:46:15;;;;;;;9.53;4.10;;;;;;;17.31;74.74;99223.41;3940357;88;21113;-83
2022/07/07 19:52:18;;;;;;;6.95;3.70;;;;;;;17.23;75.23;99217.02;3926599;89;21035;-83
2022/07/07 19:58:20;;;;;;;4.67;3.72;;;;;;;17.16;75.04;99222.02;3925322;89;21014;-83
2022/07/07 20:04:22;;;;;;;6.25;3.75;;;;;;;17.08;75.04;99217.18;3937860;89;21637;-83
2022/07/07 20:10:24;;;;;;;7.12;4.10;;;;;;;17.02;75.06;99236.02;3922575;89;21122;-83
2022/07/07 20:16:25;;;;;;;5.47;4.30;;;;;;;16.93;75.41;99232.34;3928694;89;22160;-83
2022/07/07 20:22:27;;;;;;;8.68;4.67;;;;;;;16.88;75.87;99245.84;3925318;89;21063;-83
2022/07/07 20:28:29;;;;;;;8.33;4.25;;;;;;;16.87;76.66;99245.05;3907722;89;21082;-83
2022/07/07 20:34:30;;;;;;;7.45;3.95;;;;;;;16.86;77.14;99246.26;3937389;89;21162;-83
2022/07/07 20:40:31;;;;;;;4.42;3.80;;;;;;;16.83;77.13;99242.14;3930266;88;21597;-85
2022/07/07 20:46:33;;;;;;;5.95;4.45;;;;;;;16.85;77.76;99243.28;3970083;88;21522;-82
2022/07/07 20:52:38;;;;;;;4.87;4.03;;;;;;;16.81;77.97;99241.16;4009592;87;21022;-83
2022/07/07 20:58:41;;;;;;;9.23;4.50;;;;;;;16.77;78.55;99236.25;3987454;87;21107;-82
2022/07/07 21:04:44;;;;;;;4.90;4.35;;;;;;;16.72;78.41;99239.48;3994521;86;21591;-83
2022/07/07 21:10:45;;;;;;;7.90;4.70;;;;;;;16.64;78.95;99241.33;4010710;87;21054;-83
2022/07/07 21:16:48;;;;;;;4.50;4.10;;;;;;;16.60;79.45;99246.88;3983360;88;21082;-84
2022/07/07 21:22:49;;;;;;;4.85;3.72;;;;;;;16.48;79.72;99253.51;3972869;88;21087;-83
2022/07/07 21:28:50;;;;;;;4.47;3.55;;;;;;;16.52;80.41;99262.57;4020984;87;21047;-82
2022/07/07 21:34:52;;;;;;;5.03;3.80;;;;;;;16.57;80.75;99257.99;4046168;86;21090;-82
2022/07/07 21:40:53;;;;;;;5.67;4.03;;;;;;;16.57;80.87;99266.28;4020257;86;21634;-81
2022/07/07 21:46:54;;;;;;;5.08;3.60;;;;;;;16.48;80.85;99272.85;4070258;86;21071;-82
2022/07/07 21:52:56;;;;;;;5.15;3.85;;;;;;;16.44;80.61;99276.22;4076068;86;21022;-81
2022/07/07 21:58:57;;;;;;;4.92;3.05;;;;;;;16.44;80.90;99278.43;4018339;87;21037;-83
2022/07/07 22:11:17;;;;;;;6.33;3.60;;;;;;;16.41;81.30;99280.56;4020902;87;21813;-82
2022/07/07 22:17:20;;;;;;;5.87;3.27;;;;;;;16.33;81.63;99276.90;4010775;87;21045;-83
2022/07/07 22:23:23;;;;;;;3.45;2.90;;;;;;;16.28;81.43;99284.23;4074706;86;21054;-84
2022/07/07 22:29:26;;;;;;;4.80;3.17;;;;;;;16.29;82.04;99283.03;4022340;87;21569;-83
2022/07/07 22:35:29;;;;;;;6.17;3.10;;;;;;;16.33;82.57;99291.50;4010752;87;21077;-83
2022/07/07 22:41:32;;;;;;;4.75;2.83;;;;;;;16.39;82.86;99284.94;4081515;86;21565;-83
2022/07/07 22:47:41;;;;;;;3.62;2.87;;;;;;;16.40;82.95;99286.50;3973528;88;21131;-82
2022/07/07 22:53:43;;;;;;;6.80;3.50;;;;;;;16.40;82.98;99294.20;4080857;85;21052;-83
2022/07/07 22:59:45;;;;;;;5.72;3.65;;;;;;;16.37;83.29;99296.98;4043559;87;20991;-82
2022/07/07 23:05:46;;;;;;;5.12;3.58;;;;;;;16.29;83.57;99291.31;4011239;87;21077;-82
2022/07/07 23:11:47;;;;;;;6.92;4.08;;;;;;;16.29;84.15;99289.94;4007949;87;21621;-82
2022/07/07 23:17:50;;;;;;;4.85;3.72;;;;;;;16.29;84.06;99298.22;3968860;88;21087;-83
2022/07/07 23:23:53;;;;;;;4.28;3.83;;;;;;;16.24;84.59;99292.53;4049625;88;21013;-83
2022/07/07 23:29:54;;;;;;;4.15;3.33;;;;;;;16.16;85.05;99293.00;4033659;87;21579;-82
2022/07/07 23:35:56;;;;;;;5.65;3.72;;;;;;;16.12;85.16;99289.46;3989977;87;21003;-82
2022/07/07 23:41:58;;;;;;;4.12;3.20;;;;;;;16.05;85.44;99290.91;4054155;85;21607;-83
2022/07/07 23:47:59;;;;;;;4.45;3.30;;;;;;;16.05;85.85;99293.08;4042616;85;21027;-82
2022/07/07 23:54:01;;;;;;;4.30;3.35;;;;;;;16.06;85.61;99290.50;3992600;89;21126;-82
